Pagrindinis puslapis
METAR-TAF:

METAR-TAF

Oro uostai :

Al-Hasa, Saudo Arabija

platuma: 25-18N, ilguma: 049-29E, Aukštis: 179 m

Dabartinis oras

Ataskaita buvo paskelbta 32 minutes, ne 14:00 UTC
Vėjas 8 kt iš Šiaurės Rytų
Temperatūra 41°C
Drėgmė 11%
Slėgis 1005 hPa
Matomumas 10 km arba daugiau
nėra debesų žemiau 1500 m ir nėra kamuolinių lietaus debesų

METAR: OEAH 191400Z 05008KT CAVOK 41/05 Q1005 NOSIG

Laikas: 17:32 (14:32 UTC)

Prognozė

Ataskaita buvo paskelbta 5 valandos ir 32 minutes, ne 09:00 UTC
Prognozė galioja nuo 19 metu 12 UTC su 20 metu 18 UTC
Vėjas 8 kt iš Rytų
Matomumas 10 km arba daugiau
nėra debesų žemiau 1500 m ir nėra kamuolinių lietaus debesų
Tapsmas
nuo 19 metu 18 UTC su 19 metu 20 UTC
Vėjas 10 kt iš Šiaurės

TAF: OEAH 190900Z 1912/2018 09008KT CAVOK BECMG 1918/1920 35010KT

Orai ataskaitas ir orų prognozės (METAR, TAF).

turimą stotys yra geltonos ir raudonos taškus žemėlapyje.

Perkelti pele per norėdami pamatyti stoties vardą.

Tada spustelėkite, norėdami matyti oro stebėjimo ir prognozės.

Norėdami pakeisti žemėlapį: spustelėkite ant žalios mygtukų su juodo kryžiaus žemyn,; žalią mygtuką su brūkšneliu, jei norite nutolinti; arba žalių rodyklių gretimoms žemėlapius.


METAR-TAF: